Weather reports worldwide

Advertisment
Vipiteno, Italy (16014): temperature & dewpoint: 19.03.2019 07:00:00 - 25.03.2019 07:00:00 (CET)Vipiteno, Italy (16014): wind speed: 19.03.2019 07:00:00 - 25.03.2019 07:00:00 (CET)Vipiteno, Italy (16014): wind direction: 19.03.2019 07:00:00 - 25.03.2019 07:00:00 (CET)
Date & Time tt [°C] td [°C] ff [km/h] ff [kn] dd
25.03.2019 07:00:00 - - - - -
25.03.2019 06:00:00 0,0 -4,1 2 1 WNW
25.03.2019 05:00:00 1,4 -2,8 2 1 S
25.03.2019 04:00:00 2,5 -2,1 5 3 WNW
25.03.2019 03:00:00 3,1 -2,3 4 2 WNW
25.03.2019 02:00:00 4,2 -1,7 5 3 NNE
25.03.2019 01:00:00 5,2 -1,4 9 5 WSW
25.03.2019 00:00:00 5,9 -1,4 13 7 W
24.03.2019 23:00:00 6,4 -0,9 15 8 W
24.03.2019 22:00:00 7,7 -1,4 15 8 WSW
24.03.2019 21:00:00 9,1 -0,9 13 7 WSW
24.03.2019 20:00:00 10,9 -1,3 13 7 W
24.03.2019 19:00:00 11,3 -1,6 15 8 W
24.03.2019 18:00:00 14,6 -2,5 15 8 W
24.03.2019 17:00:00 15,1 -1,2 5 3 S
24.03.2019 16:00:00 17,0 -0,8 5 3 SSW
24.03.2019 15:00:00 17,8 -1,0 8 4 SE
24.03.2019 14:00:00 17,8 -1,5 4 2 SSW
24.03.2019 13:00:00 16,1 -0,7 8 4 E
24.03.2019 12:00:00 13,8 0,3 4 2 S
24.03.2019 11:00:00 10,7 0,3 2 1 ENE
24.03.2019 10:00:00 7,5 1,5 2 1 N
24.03.2019 09:00:00 3,9 2,1 2 1 E
24.03.2019 08:00:00 -0,6 -2,4 0 0 N
24.03.2019 07:00:00 -1,9 -4,1 2 1 NW
24.03.2019 06:00:00 -2,0 -4,4 2 1 WSW
24.03.2019 05:00:00 -1,4 -4,4 2 1 WSW
24.03.2019 04:00:00 -0,7 -4,3 0 0 N
24.03.2019 03:00:00 0,2 -3,8 4 2 W
24.03.2019 02:00:00 1,0 -3,2 2 1 NW
24.03.2019 01:00:00 1,8 -3,0 2 1 WNW
24.03.2019 00:00:00 3,5 -1,7 5 3 W
23.03.2019 23:00:00 4,0 -2,7 2 1 WSW
23.03.2019 22:00:00 5,7 -1,8 5 3 WNW
23.03.2019 21:00:00 7,5 -1,8 8 4 WNW
23.03.2019 20:00:00 8,7 -1,5 15 8 W
23.03.2019 19:00:00 11,7 -1,9 15 8 SW
23.03.2019 18:00:00 15,3 -3,2 18 10 WNW
23.03.2019 17:00:00 16,8 -3,4 24 13 NW
23.03.2019 16:00:00 17,8 -2,6 22 12 NW
23.03.2019 15:00:00 18,5 -3,1 11 6 NNW
23.03.2019 14:00:00 18,4 -4,4 5 3 W
23.03.2019 13:00:00 17,6 -3,9 5 3 E
23.03.2019 12:00:00 14,1 1,9 4 2 NNE
23.03.2019 11:00:00 10,4 -0,5 2 1 N
23.03.2019 10:00:00 6,6 0,8 2 1 WNW
23.03.2019 09:00:00 3,2 1,1 2 1 ENE
23.03.2019 08:00:00 -0,7 -2,5 0 0 N
23.03.2019 07:00:00 -2,6 -5,1 0 0 N
23.03.2019 06:00:00 -2,3 -5,2 0 0 N
23.03.2019 05:00:00 -2,0 -5,2 0 0 N
23.03.2019 04:00:00 -1,1 -4,3 0 0 N
23.03.2019 03:00:00 -1,1 -5,2 0 0 N
23.03.2019 02:00:00 0,0 -4,1 0 0 N
23.03.2019 01:00:00 0,5 -4,2 2 1 WSW
23.03.2019 00:00:00 1,9 -3,3 2 1 S
22.03.2019 23:00:00 2,9 -3,5 4 2 N
22.03.2019 22:00:00 4,2 -2,7 4 2 WNW
22.03.2019 21:00:00 6,5 -2,8 0 0 N
22.03.2019 20:00:00 8,2 -2,6 8 4 W
22.03.2019 19:00:00 10,5 -3,0 5 3 WSW
22.03.2019 18:00:00 12,8 -3,2 4 2 SSW
22.03.2019 17:00:00 14,5 -3,0 5 3 S
22.03.2019 16:00:00 16,2 -4,0 5 3 S
22.03.2019 15:00:00 17,0 -4,4 5 3 SSW
22.03.2019 14:00:00 16,7 -5,8 8 4 S
22.03.2019 13:00:00 14,7 -4,2 4 2 ESE
22.03.2019 12:00:00 11,5 -6,1 4 2 S
22.03.2019 11:00:00 8,3 -5,0 2 1 NNE
22.03.2019 10:00:00 4,8 -4,1 2 1 E
22.03.2019 09:00:00 1,4 -2,4 2 1 E
22.03.2019 08:00:00 -2,8 -5,5 0 0 N
22.03.2019 07:00:00 -4,3 -7,8 0 0 N
22.03.2019 06:00:00 -4,1 -7,8 0 0 N
22.03.2019 05:00:00 -3,9 -7,6 0 0 N
22.03.2019 04:00:00 -3,6 -7,6 0 0 N
22.03.2019 03:00:00 -2,9 -7,3 4 2 W
22.03.2019 02:00:00 -1,6 -6,1 4 2 W
22.03.2019 01:00:00 -1,3 -6,3 0 0 N
22.03.2019 00:00:00 -0,4 -6,1 2 1 W
21.03.2019 23:00:00 0,5 -5,8 4 2 W
21.03.2019 22:00:00 2,1 -5,6 2 1 SSW
21.03.2019 21:00:00 3,5 -6,1 4 2 WSW
21.03.2019 20:00:00 5,1 -6,0 5 3 W
21.03.2019 19:00:00 7,5 -6,8 4 2 SE
21.03.2019 18:00:00 9,7 -9,0 4 2 S
21.03.2019 17:00:00 11,5 -7,5 5 3 S
21.03.2019 16:00:00 13,5 -8,5 5 3 S
21.03.2019 15:00:00 14,6 -5,3 4 2 S
21.03.2019 14:00:00 - - - - -
21.03.2019 13:00:00 - - - - -
21.03.2019 12:00:00 - - - - -
21.03.2019 11:00:00 - - - - -
21.03.2019 10:00:00 - - - - -
21.03.2019 09:00:00 - - - - -
21.03.2019 08:00:00 - - - - -
21.03.2019 07:00:00 - - - - -
21.03.2019 06:00:00 - - - - -
21.03.2019 05:00:00 - - - - -
21.03.2019 04:00:00 - - - - -
21.03.2019 03:00:00 - - - - -
21.03.2019 02:00:00 - - - - -
21.03.2019 01:00:00 - - - - -
21.03.2019 00:00:00 - - - - -
20.03.2019 23:00:00 - - - - -
20.03.2019 22:00:00 - - - - -
20.03.2019 21:00:00 - - - - -
20.03.2019 20:00:00 - - - - -
20.03.2019 19:00:00 - - - - -
20.03.2019 18:00:00 - - - - -
20.03.2019 17:00:00 - - - - -
20.03.2019 16:00:00 - - - - -
20.03.2019 15:00:00 - - - - -
20.03.2019 14:00:00 - - - - -
20.03.2019 13:00:00 - - - - -
20.03.2019 12:00:00 - - - - -
20.03.2019 11:00:00 - - - - -
20.03.2019 10:00:00 - - - - -
20.03.2019 09:00:00 - - - - -
20.03.2019 08:00:00 - - - - -
20.03.2019 07:00:00 - - - - -
20.03.2019 06:00:00 - - - - -
20.03.2019 05:00:00 - - - - -
20.03.2019 04:00:00 - - - - -
20.03.2019 03:00:00 - - - - -
20.03.2019 02:00:00 - - - - -
20.03.2019 01:00:00 - - - - -
20.03.2019 00:00:00 - - - - -
19.03.2019 23:00:00 - - - - -
19.03.2019 22:00:00 - - - - -
19.03.2019 21:00:00 - - - - -
19.03.2019 20:00:00 - - - - -
19.03.2019 19:00:00 - - - - -
19.03.2019 18:00:00 - - - - -
19.03.2019 17:00:00 - - - - -
19.03.2019 16:00:00 - - - - -
19.03.2019 15:00:00 - - - - -
19.03.2019 14:00:00 - - - - -
19.03.2019 13:00:00 - - - - -
19.03.2019 12:00:00 - - - - -
19.03.2019 11:00:00 - - - - -
19.03.2019 10:00:00 - - - - -
19.03.2019 09:00:00 - - - - -
19.03.2019 08:00:00 - - - - -
19.03.2019 07:00:00 - - - - -

tt = temperature
td = dewpoint
ff = wind speed
dd = wind direction

Next stations